Time;durP1;ratioP1;P1;durP2;ratioP2;P2;SDS_P1;SDS_P2;PMS_P1;PMS_P2;Temp;Humidity;BMP_temperature;BMP_pressure;BME280_temperature;BME280_humidity;BME280_pressure;Samples;Min_cycle;Max_cycle;Signal;HPM_P1;HPM_P2
2023/07/30 00:01:40;;;;;;;9.38;3.58;;;16.20;99.90;;;;;;5114257;28;20637;-53
2023/07/30 00:04:06;;;;;;;7.45;3.40;;;16.20;99.90;;;;;;5114194;28;20256;-52
2023/07/30 00:06:31;;;;;;;11.13;3.33;;;16.20;99.90;;;;;;5114199;28;20170;-54
2023/07/30 00:08:57;;;;;;;7.05;3.30;;;16.30;99.90;;;;;;5114177;28;20173;-54
2023/07/30 00:11:23;;;;;;;9.20;3.58;;;16.30;99.90;;;;;;5114080;28;20205;-54
2023/07/30 00:13:48;;;;;;;9.40;3.20;;;16.30;99.90;;;;;;5113745;28;20173;-52
2023/07/30 00:16:14;;;;;;;10.48;3.40;;;16.30;99.90;;;;;;5114097;28;20598;-52
2023/07/30 00:18:40;;;;;;;10.18;3.42;;;16.30;99.90;;;;;;5113911;28;20274;-53
2023/07/30 00:21:05;;;;;;;8.32;3.60;;;16.20;99.90;;;;;;5114085;28;20169;-53
2023/07/30 00:23:31;;;;;;;8.25;3.13;;;16.00;99.90;;;;;;5113998;28;20184;-50
2023/07/30 00:25:56;;;;;;;8.60;3.40;;;16.00;99.90;;;;;;5113907;28;20202;-53
2023/07/30 00:28:22;;;;;;;9.20;3.30;;;16.10;99.90;;;;;;5113946;28;20230;-54
2023/07/30 00:30:48;;;;;;;10.65;3.03;;;16.00;99.90;;;;;;5113874;28;20665;-49
2023/07/30 00:33:13;;;;;;;6.95;2.92;;;16.00;99.90;;;;;;5113874;28;20169;-53
2023/07/30 00:35:39;;;;;;;14.73;3.33;;;16.00;99.90;;;;;;5113877;28;20177;-53
2023/07/30 00:38:04;;;;;;;7.45;3.20;;;16.10;99.90;;;;;;5113549;28;20246;-53
2023/07/30 00:40:30;;;;;;;12.35;3.58;;;16.10;99.90;;;;;;5113866;28;20515;-51
2023/07/30 00:42:56;;;;;;;11.55;3.70;;;16.00;99.90;;;;;;5113779;28;20640;-50
2023/07/30 00:45:21;;;;;;;6.93;3.15;;;16.00;99.90;;;;;;5112640;28;20172;-53
2023/07/30 00:47:47;;;;;;;10.63;3.63;;;16.10;99.90;;;;;;5113796;28;20534;-51
2023/07/30 00:50:15;;;;;;;8.15;3.25;;;16.00;99.90;;;;;;5112532;28;20215;-51
2023/07/30 00:52:41;;;;;;;10.43;3.63;;;15.90;99.90;;;;;;5112128;28;20584;-53
2023/07/30 00:55:07;;;;;;;10.13;3.33;;;15.90;99.90;;;;;;5114004;28;20169;-53
2023/07/30 00:57:38;;;;;;;11.02;3.60;;;16.00;99.90;;;;;;5113655;28;20198;-53
2023/07/30 01:00:04;;;;;;;11.57;3.28;;;16.00;99.90;;;;;;5113642;28;20252;-53
2023/07/30 01:02:31;;;;;;;10.63;3.63;;;16.00;99.90;;;;;;5113603;28;20291;-51
2023/07/30 01:04:59;;;;;;;12.35;3.78;;;15.90;99.90;;;;;;5113633;28;20176;-53
2023/07/30 01:07:25;;;;;;;10.18;3.22;;;16.00;99.90;;;;;;5113877;28;20177;-53
2023/07/30 01:09:51;;;;;;;11.40;3.58;;;15.90;99.90;;;;;;5113455;28;20274;-53
2023/07/30 01:12:17;;;;;;;14.10;3.67;;;16.00;99.90;;;;;;5113281;28;20253;-51
2023/07/30 01:14:45;;;;;;;10.18;3.28;;;15.90;99.90;;;;;;5113478;28;20173;-53
2023/07/30 01:17:12;;;;;;;11.43;4.18;;;16.00;99.90;;;;;;5113756;28;20234;-50
2023/07/30 01:19:37;;;;;;;11.73;3.80;;;16.00;99.90;;;;;;5113123;28;20233;-54
2023/07/30 01:22:03;;;;;;;10.18;3.65;;;16.00;99.90;;;;;;5113483;28;20534;-53
2023/07/30 01:24:29;;;;;;;10.57;3.75;;;16.00;99.90;;;;;;5113534;28;20166;-52
2023/07/30 01:26:56;;;;;;;11.98;3.53;;;15.90;99.90;;;;;;5116685;28;20174;-54
2023/07/30 01:29:27;;;;;;;11.10;3.47;;;16.00;99.90;;;;;;5117160;28;20165;-51
2023/07/30 01:31:56;;;;;;;9.30;3.80;;;16.10;99.90;;;;;;5117210;28;20168;-53
2023/07/30 01:34:26;;;;;;;9.82;3.47;;;16.00;99.90;;;;;;5117022;28;20184;-50
2023/07/30 01:36:54;;;;;;;11.55;3.22;;;16.00;99.90;;;;;;5117155;28;20162;-53
2023/07/30 01:39:20;;;;;;;12.52;3.67;;;15.90;99.90;;;;;;5117026;28;20533;-54
2023/07/30 01:41:46;;;;;;;8.60;2.40;;;15.90;99.90;;;;;;5116727;28;20686;-53
2023/07/30 01:44:11;;;;;;;10.13;2.97;;;15.80;99.90;;;;;;5116991;28;20252;-54
2023/07/30 01:46:37;;;;;;;11.52;3.22;;;15.80;99.90;;;;;;5116864;28;20211;-54
2023/07/30 01:49:03;;;;;;;11.05;3.13;;;15.80;99.90;;;;;;5116810;28;20203;-53
2023/07/30 01:51:29;;;;;;;10.80;3.38;;;15.80;99.90;;;;;;5116605;28;20258;-53
2023/07/30 01:53:54;;;;;;;9.85;3.30;;;15.80;99.90;;;;;;5116625;28;20181;-50
2023/07/30 01:56:20;;;;;;;13.38;3.42;;;15.70;99.90;;;;;;5116679;28;20211;-50
2023/07/30 01:58:46;;;;;;;12.88;3.60;;;15.70;99.90;;;;;;5116576;28;20197;-52
2023/07/30 02:01:12;;;;;;;9.35;3.40;;;15.70;99.90;;;;;;5116283;28;20181;-52
2023/07/30 02:03:37;;;;;;;9.10;3.28;;;15.70;99.90;;;;;;5116533;28;20690;-51
2023/07/30 02:06:03;;;;;;;11.25;3.78;;;15.70;99.90;;;;;;5116462;28;20208;-55
2023/07/30 02:08:29;;;;;;;13.15;3.72;;;15.60;99.90;;;;;;5116467;28;20256;-52
2023/07/30 02:10:58;;;;;;;11.73;3.58;;;15.70;99.90;;;;;;5116361;28;20243;-51
2023/07/30 02:13:24;;;;;;;13.10;3.55;;;15.60;99.90;;;;;;5116077;28;20740;-51
2023/07/30 02:15:50;;;;;;;12.45;3.00;;;15.70;99.90;;;;;;5116348;28;20169;-50
2023/07/30 02:18:16;;;;;;;14.75;3.55;;;15.70;99.90;;;;;;5116061;28;20256;-54
2023/07/30 02:20:42;;;;;;;12.15;2.90;;;15.70;99.90;;;;;;5115887;28;20184;-52
2023/07/30 02:23:08;;;;;;;12.10;4.05;;;15.70;99.90;;;;;;5116139;28;20602;-53
2023/07/30 02:25:34;;;;;;;9.88;2.90;;;15.70;99.90;;;;;;5116116;28;20169;-52
2023/07/30 02:28:03;;;;;;;10.27;3.45;;;15.60;99.90;;;;;;5116060;28;20272;-53
2023/07/30 02:30:28;;;;;;;11.60;3.55;;;15.60;99.90;;;;;;5116058;28;20201;-54
2023/07/30 02:32:54;;;;;;;11.43;3.53;;;15.60;99.90;;;;;;5115958;28;20211;-52
2023/07/30 02:35:19;;;;;;;14.00;3.13;;;15.60;99.90;;;;;;5115977;28;20213;-52
2023/07/30 02:37:45;;;;;;;11.55;3.30;;;15.60;99.90;;;;;;5115625;28;20177;-53
2023/07/30 02:40:11;;;;;;;14.52;3.67;;;15.60;99.90;;;;;;5115607;28;20530;-50
2023/07/30 02:42:37;;;;;;;12.77;3.50;;;15.60;99.90;;;;;;5115801;28;20622;-54
2023/07/30 02:45:03;;;;;;;14.63;3.55;;;15.60;99.90;;;;;;5115703;28;20173;-49
2023/07/30 02:47:29;;;;;;;11.63;3.55;;;15.70;99.90;;;;;;5115786;27;20184;-52
2023/07/30 02:49:55;;;;;;;12.18;3.33;;;15.70;99.90;;;;;;5115271;28;20205;-50
2023/07/30 02:52:20;;;;;;;10.68;3.40;;;15.70;99.90;;;;;;5115550;28;20173;-49
2023/07/30 02:54:46;;;;;;;10.60;3.47;;;15.70;99.90;;;;;;5115449;28;20268;-51
2023/07/30 02:57:12;;;;;;;12.57;3.53;;;15.80;99.90;;;;;;5115467;28;20174;-53
2023/07/30 02:59:38;;;;;;;12.95;3.92;;;15.80;99.90;;;;;;5115169;28;20542;-52
2023/07/30 03:02:07;;;;;;;14.50;3.75;;;15.80;99.90;;;;;;5115681;28;20169;-54
2023/07/30 03:04:33;;;;;;;12.02;3.33;;;15.80;99.90;;;;;;5115319;28;20171;-52
2023/07/30 03:06:59;;;;;;;8.80;3.10;;;15.80;99.90;;;;;;5115361;28;20613;-53
2023/07/30 03:09:25;;;;;;;11.13;3.50;;;15.90;99.90;;;;;;5115192;28;20169;-50
2023/07/30 03:11:50;;;;;;;11.68;3.55;;;15.90;99.90;;;;;;5115155;28;20172;-54
2023/07/30 03:14:20;;;;;;;13.45;3.30;;;15.70;99.90;;;;;;5115147;28;20209;-53
2023/07/30 03:16:46;;;;;;;13.52;3.78;;;15.70;99.90;;;;;;5115061;28;20180;-51
2023/07/30 03:19:12;;;;;;;12.07;3.15;;;15.70;99.90;;;;;;5114815;28;20229;-51
2023/07/30 03:21:37;;;;;;;15.05;3.83;;;15.70;99.90;;;;;;5115046;28;20264;-50
2023/07/30 03:24:03;;;;;;;14.27;3.80;;;15.80;99.90;;;;;;5114987;28;20173;-52
2023/07/30 03:26:29;;;;;;;11.75;3.85;;;15.80;99.90;;;;;;5114906;28;20196;-53
2023/07/30 03:28:54;;;;;;;14.75;4.05;;;15.90;99.90;;;;;;5114862;28;20732;-49
2023/07/30 03:31:20;;;;;;;15.55;3.70;;;15.90;99.90;;;;;;5114784;28;20208;-49
2023/07/30 03:33:46;;;;;;;12.88;3.85;;;16.00;99.90;;;;;;5114759;28;20214;-53
2023/07/30 03:36:15;;;;;;;18.08;4.45;;;16.00;99.90;;;;;;5114684;28;20174;-50
2023/07/30 03:38:42;;;;;;;11.35;3.83;;;16.00;99.90;;;;;;5114692;28;20173;-49
2023/07/30 03:41:11;;;;;;;12.57;3.70;;;16.10;99.90;;;;;;5114697;27;20275;-51
2023/07/30 03:43:37;;;;;;;13.57;3.85;;;16.10;99.90;;;;;;5114594;28;20643;-53
2023/07/30 03:46:03;;;;;;;14.05;3.90;;;16.00;99.90;;;;;;5114576;28;20169;-54
2023/07/30 03:48:28;;;;;;;12.52;3.50;;;16.10;99.90;;;;;;5113547;28;20222;-54
2023/07/30 03:50:54;;;;;;;11.02;3.08;;;16.10;99.90;;;;;;5114413;28;20197;-52
2023/07/30 03:53:21;;;;;;;12.90;3.47;;;16.10;99.90;;;;;;5114175;28;20228;-51
2023/07/30 03:55:47;;;;;;;14.27;3.60;;;16.00;99.90;;;;;;5114461;28;20168;-49
2023/07/30 03:58:12;;;;;;;13.80;3.75;;;16.00;99.90;;;;;;5114384;28;20182;-51
2023/07/30 04:00:38;;;;;;;13.63;3.42;;;16.00;99.90;;;;;;5114306;28;20208;-50
2023/07/30 04:03:04;;;;;;;9.93;3.63;;;16.00;99.90;;;;;;5114234;28;20165;-52
2023/07/30 04:05:30;;;;;;;11.35;3.40;;;16.00;99.90;;;;;;5114011;28;20576;-52
2023/07/30 04:07:56;;;;;;;12.73;3.58;;;15.90;99.90;;;;;;5114209;28;20208;-53
2023/07/30 04:10:22;;;;;;;14.45;4.03;;;15.90;99.90;;;;;;5113800;28;20673;-51
2023/07/30 04:12:47;;;;;;;11.63;3.80;;;15.90;99.90;;;;;;5114166;28;20683;-50
2023/07/30 04:15:15;;;;;;;12.98;4.03;;;15.90;99.90;;;;;;5114090;28;20264;-52
2023/07/30 04:17:40;;;;;;;15.27;3.63;;;15.90;99.90;;;;;;5114095;28;20227;-53
2023/07/30 04:20:06;;;;;;;13.93;3.78;;;15.90;99.90;;;;;;5113651;28;20697;-50
2023/07/30 04:22:32;;;;;;;13.77;3.60;;;15.90;99.90;;;;;;5113987;28;20661;-54
2023/07/30 04:24:58;;;;;;;13.77;3.83;;;15.90;99.90;;;;;;5114002;28;20169;-50
2023/07/30 04:27:23;;;;;;;13.32;3.58;;;15.90;99.90;;;;;;5113990;28;20173;-54
2023/07/30 04:29:49;;;;;;;13.05;3.55;;;15.90;99.90;;;;;;5113942;28;20584;-51
2023/07/30 04:32:14;;;;;;;15.93;4.20;;;15.90;99.90;;;;;;5114190;28;20246;-54
2023/07/30 04:34:40;;;;;;;14.38;4.05;;;16.00;99.90;;;;;;5113864;28;20178;-52
2023/07/30 04:37:06;;;;;;;14.48;4.07;;;15.90;99.90;;;;;;5112576;28;20227;-52
2023/07/30 04:39:35;;;;;;;12.80;3.22;;;15.90;99.90;;;;;;5113878;28;20180;-48
2023/07/30 04:42:01;;;;;;;14.00;3.83;;;15.80;99.90;;;;;;5113562;28;20177;-51
2023/07/30 04:44:27;;;;;;;13.75;3.90;;;15.80;99.90;;;;;;5113842;28;20260;-54
2023/07/30 04:46:52;;;;;;;17.10;4.07;;;15.90;99.90;;;;;;5112634;28;20178;-51
2023/07/30 04:49:18;;;;;;;17.10;4.35;;;15.90;99.90;;;;;;5113773;28;20180;-50
2023/07/30 04:51:43;;;;;;;15.20;4.32;;;15.90;99.90;;;;;;5113662;28;20205;-51
2023/07/30 04:54:09;;;;;;;12.48;3.60;;;15.90;99.90;;;;;;5113729;28;20178;-51
2023/07/30 04:56:35;;;;;;;18.38;4.45;;;16.00;99.90;;;;;;5113739;28;20243;-51
2023/07/30 04:59:01;;;;;;;16.25;4.18;;;15.90;99.90;;;;;;5113406;28;20184;-52
2023/07/30 05:01:27;;;;;;;14.52;4.00;;;15.90;99.90;;;;;;5117700;28;20181;-52
2023/07/30 05:03:53;;;;;;;13.10;4.05;;;15.90;99.90;;;;;;5117656;28;20185;-54
2023/07/30 05:06:19;;;;;;;15.98;4.28;;;16.00;99.90;;;;;;5117636;28;20184;-54
2023/07/30 05:08:44;;;;;;;12.73;3.45;;;15.90;99.90;;;;;;5117660;28;20524;-52
2023/07/30 05:11:10;;;;;;;18.10;4.10;;;15.90;99.90;;;;;;5117520;28;20205;-51
2023/07/30 05:13:36;;;;;;;16.52;4.25;;;16.00;99.90;;;;;;5117609;28;20617;-53
2023/07/30 05:16:01;;;;;;;15.20;4.15;;;16.00;99.90;;;;;;5117505;28;20173;-52
2023/07/30 05:18:27;;;;;;;16.13;3.92;;;16.00;99.90;;;;;;5116986;28;20256;-49
2023/07/30 05:20:53;;;;;;;17.27;4.30;;;16.10;99.90;;;;;;5117116;28;20586;-49
2023/07/30 05:23:19;;;;;;;11.20;3.78;;;16.10;99.90;;;;;;5117423;28;20201;-53
2023/07/30 05:25:45;;;;;;;15.73;4.30;;;16.10;99.90;;;;;;5117031;28;20173;-52
2023/07/30 05:28:11;;;;;;;13.98;4.18;;;16.20;99.90;;;;;;5117515;28;20541;-52
2023/07/30 05:30:37;;;;;;;16.10;4.65;;;16.20;99.90;;;;;;5115554;28;20209;-52
2023/07/30 05:33:02;;;;;;;16.92;4.60;;;16.20;99.90;;;;;;5115853;28;20165;-51
2023/07/30 05:35:28;;;;;;;17.75;4.50;;;16.20;99.90;;;;;;5117055;28;20191;-51
2023/07/30 05:37:54;;;;;;;16.75;4.82;;;16.20;99.90;;;;;;5117117;28;20533;-50
2023/07/30 05:40:20;;;;;;;13.13;4.13;;;16.30;99.90;;;;;;5116741;28;20711;-50
2023/07/30 05:42:46;;;;;;;18.33;4.72;;;16.30;99.90;;;;;;5117078;28;20165;-52
2023/07/30 05:45:12;;;;;;;15.60;4.15;;;16.30;99.90;;;;;;5116861;28;20314;-53
2023/07/30 05:47:37;;;;;;;13.95;4.60;;;16.30;99.90;;;;;;5116769;28;20193;-54
2023/07/30 05:50:03;;;;;;;14.63;4.28;;;16.30;99.90;;;;;;5115664;28;20746;-52
2023/07/30 05:52:29;;;;;;;15.05;5.07;;;16.40;99.90;;;;;;5115053;28;20564;-53
2023/07/30 05:54:55;;;;;;;16.58;4.85;;;16.40;99.90;;;;;;5115917;28;20185;-51
2023/07/30 05:57:20;;;;;;;11.93;4.00;;;16.50;99.90;;;;;;5116209;28;20652;-51
2023/07/30 05:59:46;;;;;;;19.13;4.38;;;16.40;99.90;;;;;;5116114;28;20169;-52
2023/07/30 06:02:12;;;;;;;14.27;4.30;;;16.50;99.90;;;;;;5114949;28;20246;-52
2023/07/30 06:04:38;;;;;;;16.25;4.75;;;16.40;99.90;;;;;;5115095;28;20630;-52
2023/07/30 06:07:04;;;;;;;21.90;5.00;;;16.50;99.90;;;;;;5115802;28;20252;-50
2023/07/30 06:09:29;;;;;;;16.65;4.18;;;16.50;99.90;;;;;;5115861;28;20227;-51
2023/07/30 06:12:00;;;;;;;15.18;4.65;;;16.60;99.90;;;;;;5115541;28;20174;-52
2023/07/30 06:14:26;;;;;;;13.45;4.78;;;16.70;99.90;;;;;;5116038;28;20185;-51
2023/07/30 06:16:53;;;;;;;13.90;4.60;;;16.90;99.90;;;;;;5115914;28;20203;-52
2023/07/30 06:19:19;;;;;;;15.40;4.40;;;16.80;99.90;;;;;;5110360;28;20225;-50
2023/07/30 06:21:45;;;;;;;17.15;4.30;;;16.80;99.90;;;;;;5108325;28;20180;-54
2023/07/30 06:24:10;;;;;;;19.13;4.28;;;16.80;99.90;;;;;;5113481;28;20177;-51
2023/07/30 06:26:36;;;;;;;17.65;4.32;;;16.80;99.90;;;;;;5115918;28;20173;-53
2023/07/30 06:29:02;;;;;;;16.25;4.30;;;16.80;99.90;;;;;;5115814;28;20209;-54
2023/07/30 06:31:27;;;;;;;14.68;4.40;;;16.80;99.90;;;;;;5115597;28;20193;-53
2023/07/30 06:33:53;;;;;;;15.88;4.78;;;16.70;99.90;;;;;;5115744;28;20173;-52
2023/07/30 06:36:19;;;;;;;15.00;4.18;;;16.70;99.90;;;;;;5115728;28;20512;-52
2023/07/30 06:38:44;;;;;;;17.17;4.35;;;16.80;99.90;;;;;;5115356;28;20178;-50
2023/07/30 06:41:10;;;;;;;17.67;4.10;;;16.90;99.90;;;;;;5115495;28;20177;-52
2023/07/30 06:43:36;;;;;;;15.07;4.60;;;16.90;99.90;;;;;;5115309;28;20553;-49
2023/07/30 06:46:01;;;;;;;15.77;3.75;;;17.10;99.90;;;;;;5115340;28;20619;-53
2023/07/30 06:48:27;;;;;;;12.57;4.13;;;17.20;99.90;;;;;;5114765;28;20189;-52
2023/07/30 06:50:53;;;;;;;18.58;4.75;;;17.50;99.90;;;;;;5114912;28;20197;-53
2023/07/30 06:53:19;;;;;;;13.90;4.30;;;17.70;99.90;;;;;;5114805;28;20181;-51
2023/07/30 06:55:47;;;;;;;18.25;4.93;;;17.80;99.90;;;;;;5113640;28;20242;-51
2023/07/30 06:58:13;;;;;;;14.63;4.30;;;17.80;99.90;;;;;;5113564;28;20252;-53
2023/07/30 07:00:39;;;;;;;16.42;4.50;;;17.80;99.90;;;;;;5115111;28;20181;-54
2023/07/30 07:03:05;;;;;;;18.00;4.28;;;17.70;99.90;;;;;;5115139;28;20256;-52
2023/07/30 07:05:31;;;;;;;15.90;4.40;;;17.80;99.90;;;;;;5115214;28;20180;-54
2023/07/30 07:07:56;;;;;;;16.00;4.38;;;18.00;99.90;;;;;;5114841;28;20170;-53
2023/07/30 07:10:22;;;;;;;13.02;3.97;;;18.00;99.90;;;;;;5115084;28;20587;-49
2023/07/30 07:12:48;;;;;;;14.70;4.38;;;17.90;99.90;;;;;;5115086;28;20591;-52
2023/07/30 07:15:13;;;;;;;18.25;4.57;;;17.80;99.90;;;;;;5114975;28;20630;-53
2023/07/30 07:17:39;;;;;;;15.07;4.68;;;17.90;99.90;;;;;;5115059;28;20690;-55
2023/07/30 07:20:07;;;;;;;16.45;4.65;;;17.80;99.90;;;;;;5115133;28;20232;-51
2023/07/30 07:22:33;;;;;;;15.40;3.97;;;18.10;99.90;;;;;;5113890;28;20199;-52
2023/07/30 07:24:59;;;;;;;11.88;3.95;;;18.30;99.90;;;;;;5114642;28;20169;-52
2023/07/30 07:27:25;;;;;;;14.20;3.90;;;18.50;99.90;;;;;;5115219;28;20225;-52
2023/07/30 07:29:51;;;;;;;14.68;4.32;;;18.60;99.90;;;;;;5114835;28;20173;-54
2023/07/30 07:32:18;;;;;;;11.50;3.75;;;18.90;99.90;;;;;;5114541;28;20622;-54
2023/07/30 07:34:48;;;;;;;17.92;4.43;;;19.00;99.90;;;;;;5114442;28;20195;-53
2023/07/30 07:37:15;;;;;;;12.23;4.07;;;19.00;99.90;;;;;;5114728;28;20295;-55
2023/07/30 07:39:41;;;;;;;13.70;4.28;;;18.90;99.90;;;;;;5113749;28;20183;-52
2023/07/30 07:42:07;;;;;;;16.10;4.35;;;18.90;99.90;;;;;;5114316;28;20243;-53
2023/07/30 07:44:33;;;;;;;13.77;4.18;;;18.90;99.90;;;;;;5114339;28;20181;-52
2023/07/30 07:46:58;;;;;;;15.60;4.10;;;18.70;99.90;;;;;;5114593;28;20181;-52
2023/07/30 07:49:24;;;;;;;15.57;3.90;;;18.50;99.90;;;;;;5114573;28;20170;-53
2023/07/30 07:51:50;;;;;;;18.75;4.18;;;18.50;99.90;;;;;;5114580;28;20216;-52
2023/07/30 07:54:15;;;;;;;14.63;4.43;;;18.50;99.90;;;;;;5114279;28;20177;-51
2023/07/30 07:56:41;;;;;;;12.48;3.83;;;18.60;99.90;;;;;;5114689;28;20207;-53
2023/07/30 07:59:07;;;;;;;17.35;4.30;;;18.60;99.90;;;;;;5114285;28;20173;-53
2023/07/30 08:01:35;;;;;;;18.10;3.95;;;18.70;99.90;;;;;;5114346;28;20177;-50
2023/07/30 08:04:02;;;;;;;14.07;3.90;;;18.80;99.90;;;;;;5113722;28;20641;-51
2023/07/30 08:06:28;;;;;;;11.77;3.72;;;18.90;99.90;;;;;;5114220;28;20169;-52
2023/07/30 08:08:54;;;;;;;13.43;3.65;;;18.90;99.90;;;;;;5113975;28;20184;-50
2023/07/30 08:11:19;;;;;;;8.88;2.90;;;19.00;99.90;;;;;;5114078;28;20299;-51
2023/07/30 08:13:45;;;;;;;13.77;3.85;;;19.00;99.90;;;;;;5114157;28;20252;-50
2023/07/30 08:16:11;;;;;;;10.60;3.80;;;19.10;99.90;;;;;;5114090;28;20184;-50
2023/07/30 08:18:37;;;;;;;12.07;3.22;;;19.10;99.90;;;;;;5113625;28;20337;-49
2023/07/30 08:21:03;;;;;;;8.20;2.90;;;19.00;99.90;;;;;;5114097;28;20203;-53
2023/07/30 08:23:28;;;;;;;10.07;3.03;;;19.00;99.90;;;;;;5113789;28;20173;-54
2023/07/30 08:25:54;;;;;;;10.52;3.40;;;18.90;99.90;;;;;;5113964;28;20533;-52
2023/07/30 08:28:19;;;;;;;10.02;3.33;;;19.10;99.90;;;;;;5114008;28;20174;-51
2023/07/30 08:30:45;;;;;;;10.18;2.83;;;19.10;99.90;;;;;;5113911;28;20205;-50
2023/07/30 08:33:11;;;;;;;11.25;3.08;;;19.00;99.90;;;;;;5113945;28;20188;-53
2023/07/30 08:35:37;;;;;;;10.00;2.75;;;19.00;99.90;;;;;;5109994;28;20201;-53
2023/07/30 08:38:02;;;;;;;7.60;2.60;;;19.00;99.90;;;;;;5120700;28;20222;-53
2023/07/30 08:40:28;;;;;;;8.15;2.70;;;19.10;99.90;;;;;;5120521;28;20169;-52
2023/07/30 08:42:54;;;;;;;9.82;2.60;;;19.20;99.90;;;;;;5120131;28;20214;-51
2023/07/30 08:45:20;;;;;;;10.73;2.92;;;19.30;99.90;;;;;;5120577;27;20273;-54
2023/07/30 08:47:47;;;;;;;8.57;2.92;;;19.30;99.90;;;;;;5120614;28;20173;-52
2023/07/30 08:50:13;;;;;;;11.13;3.28;;;19.40;99.90;;;;;;5120296;28;20211;-53
2023/07/30 08:52:39;;;;;;;6.63;2.67;;;19.50;99.90;;;;;;5120482;27;20173;-51
2023/07/30 08:55:06;;;;;;;8.40;2.70;;;19.50;99.90;;;;;;5119449;27;20176;-53
2023/07/30 08:57:32;;;;;;;8.10;2.47;;;19.60;99.90;;;;;;5118216;27;20204;-53
2023/07/30 09:00:10;;;;;;;5.53;2.15;;;19.80;99.90;;;;;;5119215;27;20641;-54
2023/07/30 09:02:47;;;;;;;9.15;2.28;;;19.90;99.90;;;;;;5118680;27;20180;-52
2023/07/30 09:05:13;;;;;;;4.60;1.70;;;20.10;99.90;;;;;;5119369;27;20168;-53
2023/07/30 09:07:39;;;;;;;5.10;1.73;;;20.00;99.90;;;;;;5120147;28;20177;-53
2023/07/30 09:10:05;;;;;;;7.43;1.98;;;20.10;99.90;;;;;;5119784;28;20662;-52
2023/07/30 09:12:32;;;;;;;6.13;1.30;;;20.00;99.90;;;;;;5120238;28;20196;-54
2023/07/30 09:14:59;;;;;;;6.82;1.95;;;20.00;99.90;;;;;;5119531;28;20203;-53
2023/07/30 09:17:25;;;;;;;7.13;2.08;;;20.10;99.90;;;;;;5119136;28;20189;-52
2023/07/30 09:19:52;;;;;;;8.55;2.38;;;20.10;99.90;;;;;;5118473;28;20286;-52
2023/07/30 09:22:40;;;;;;;7.90;1.88;;;20.20;99.90;;;;;;5120577;28;20173;-53
2023/07/30 09:25:06;;;;;;;5.95;1.80;;;20.20;99.90;;;;;;5120368;28;20176;-53
2023/07/30 09:27:33;;;;;;;6.97;2.38;;;20.20;99.90;;;;;;5120242;27;20215;-53
2023/07/30 09:30:00;;;;;;;7.57;2.13;;;20.30;99.90;;;;;;5120075;28;20291;-53
2023/07/30 09:32:27;;;;;;;6.28;2.20;;;20.50;99.90;;;;;;5120196;28;20170;-51
2023/07/30 09:34:54;;;;;;;8.65;2.33;;;20.50;99.90;;;;;;5120168;28;20177;-53
2023/07/30 09:37:19;;;;;;;7.97;2.33;;;20.60;99.90;;;;;;5120114;28;20517;-53
2023/07/30 09:39:48;;;;;;;7.88;2.35;;;20.70;99.90;;;;;;5120160;28;20183;-53
2023/07/30 09:42:13;;;;;;;8.18;2.28;;;20.90;99.90;;;;;;5119821;28;20496;-53
2023/07/30 09:44:39;;;;;;;8.30;2.28;;;21.10;99.90;;;;;;5120123;28;20175;-51
2023/07/30 09:47:09;;;;;;;7.88;2.28;;;21.00;99.90;;;;;;5116099;28;20642;-53
2023/07/30 09:49:38;;;;;;;7.00;1.98;;;21.10;99.90;;;;;;5116776;28;20265;-49
2023/07/30 09:52:05;;;;;;;5.15;1.70;;;21.20;99.90;;;;;;5116827;28;20185;-52
2023/07/30 09:54:31;;;;;;;8.32;2.28;;;21.50;99.90;;;;;;5116752;28;20170;-53
2023/07/30 09:56:57;;;;;;;11.52;2.30;;;21.80;99.90;;;;;;5116749;28;20177;-53
2023/07/30 09:59:23;;;;;;;4.25;1.63;;;21.90;99.90;;;;;;5116651;28;20173;-52
2023/07/30 10:01:49;;;;;;;7.30;2.20;;;21.90;99.90;;;;;;5116527;28;20556;-49
2023/07/30 10:04:18;;;;;;;6.35;1.83;;;22.20;99.90;;;;;;5116586;28;20189;-51
2023/07/30 10:07:08;;;;;;;6.88;1.98;;;22.20;99.90;;;;;;5116218;28;20559;-52
2023/07/30 10:09:43;;;;;;;6.60;2.10;;;22.30;99.90;;;;;;5116565;28;20193;-48
2023/07/30 10:12:16;;;;;;;7.03;1.70;;;22.50;99.90;;;;;;5116459;28;20173;-53
2023/07/30 10:14:42;;;;;;;5.32;1.73;;;22.60;99.90;;;;;;5116381;28;20165;-53
2023/07/30 10:17:10;;;;;;;5.85;1.90;;;22.60;99.90;;;;;;5116058;28;20654;-53
2023/07/30 10:19:37;;;;;;;5.55;1.65;;;22.30;99.90;;;;;;5115883;28;20217;-53
2023/07/30 10:22:14;;;;;;;5.05;1.80;;;22.10;99.90;;;;;;5116241;28;20303;-54
2023/07/30 10:24:55;;;;;;;4.72;1.80;;;22.00;99.90;;;;;;5116237;28;20165;-51
2023/07/30 10:27:28;;;;;;;4.82;1.73;;;22.30;99.90;;;;;;5116284;28;20165;-51
2023/07/30 10:30:14;;;;;;;6.82;1.60;;;22.40;99.90;;;;;;5116011;28;20487;-52
2023/07/30 10:32:40;;;;;;;4.50;1.45;;;22.50;99.90;;;;;;5115971;28;20192;-50
2023/07/30 10:35:05;;;;;;;5.57;1.73;;;22.40;99.90;;;;;;5115958;28;20172;-51
2023/07/30 10:37:31;;;;;;;4.13;1.40;;;22.40;99.90;;;;;;5115629;28;20580;-54
2023/07/30 10:39:57;;;;;;;4.07;1.50;;;22.10;99.90;;;;;;5115531;28;20169;-52
2023/07/30 10:42:23;;;;;;;5.55;1.65;;;21.70;99.90;;;;;;5114580;28;20173;-51
2023/07/30 10:44:49;;;;;;;5.05;1.65;;;21.40;99.90;;;;;;5114335;28;20634;-50
2023/07/30 10:47:15;;;;;;;5.57;1.70;;;21.10;99.90;;;;;;5115790;28;20173;-50
2023/07/30 10:49:43;;;;;;;7.00;1.95;;;21.00;99.90;;;;;;5115375;28;20187;-51
2023/07/30 10:52:10;;;;;;;3.78;1.60;;;20.90;99.90;;;;;;5115958;28;20265;-51
2023/07/30 10:54:37;;;;;;;6.63;2.00;;;21.20;99.90;;;;;;5115623;28;20173;-53
2023/07/30 10:57:03;;;;;;;5.47;1.88;;;21.70;99.90;;;;;;5115428;28;20640;-49
2023/07/30 10:59:36;;;;;;;4.72;1.48;;;22.00;99.90;;;;;;5115200;28;20174;-48
2023/07/30 11:02:03;;;;;;;5.95;1.90;;;22.00;99.90;;;;;;5115384;28;20247;-53
2023/07/30 11:04:28;;;;;;;4.45;1.83;;;22.20;99.90;;;;;;5115398;28;20169;-50
2023/07/30 11:06:54;;;;;;;3.55;1.40;;;22.30;99.90;;;;;;5115038;28;20649;-50
2023/07/30 11:09:21;;;;;;;3.67;1.27;;;22.50;99.90;;;;;;5115047;28;20173;-53
2023/07/30 11:11:47;;;;;;;5.57;1.60;;;22.60;99.90;;;;;;5115228;28;20208;-51
2023/07/30 11:14:20;;;;;;;4.95;1.40;;;22.90;99.90;;;;;;5115300;28;20298;-54
2023/07/30 11:16:51;;;;;;;4.50;1.50;;;23.00;99.90;;;;;;5115154;28;20177;-51
2023/07/30 11:19:17;;;;;;;6.88;1.50;;;22.60;99.90;;;;;;5115224;28;20221;-51
2023/07/30 11:21:51;;;;;;;4.60;1.15;;;22.30;99.90;;;;;;5115035;28;20592;-52
2023/07/30 11:24:17;;;;;;;3.15;1.20;;;21.80;99.90;;;;;;5115072;28;20191;-51
2023/07/30 11:26:56;;;;;;;4.25;1.50;;;21.60;99.90;;;;;;5114993;28;20170;-53
2023/07/30 11:29:21;;;;;;;7.13;1.60;;;21.60;99.90;;;;;;5114664;28;20210;-49
2023/07/30 11:31:47;;;;;;;6.05;1.33;;;21.90;99.90;;;;;;5114796;28;20201;-49
2023/07/30 11:34:14;;;;;;;2.78;1.15;;;21.90;99.90;;;;;;5114851;28;20174;-51
2023/07/30 11:36:42;;;;;;;4.22;1.27;;;21.80;99.90;;;;;;5114833;28;20170;-51
2023/07/30 11:39:08;;;;;;;4.82;1.52;;;22.00;99.90;;;;;;5114727;28;20169;-51
2023/07/30 11:41:34;;;;;;;4.70;1.30;;;22.00;99.90;;;;;;5114743;28;20234;-49
2023/07/30 11:44:00;;;;;;;6.32;1.50;;;21.90;99.90;;;;;;5114708;28;20170;-54
2023/07/30 11:46:25;;;;;;;6.10;1.75;;;22.10;99.90;;;;;;5114327;28;20169;-50
2023/07/30 11:49:09;;;;;;;6.07;1.65;;;22.50;99.90;;;;;;5114569;28;20181;-51
2023/07/30 11:51:35;;;;;;;6.57;1.80;;;22.70;99.90;;;;;;5114198;28;20181;-53
2023/07/30 11:54:02;;;;;;;3.35;1.48;;;22.50;99.90;;;;;;5114466;28;20177;-54
2023/07/30 11:56:29;;;;;;;6.15;1.90;;;22.50;99.90;;;;;;5114462;28;20539;-49
2023/07/30 11:59:04;;;;;;;4.78;1.60;;;22.40;99.90;;;;;;5114421;28;20169;-52
2023/07/30 12:01:33;;;;;;;3.53;1.60;;;22.60;99.90;;;;;;5114457;28;20165;-52
2023/07/30 12:04:00;;;;;;;4.18;1.55;;;22.70;99.90;;;;;;5114347;28;20177;-53
2023/07/30 12:06:47;;;;;;;6.82;1.80;;;22.50;99.90;;;;;;5114233;28;20250;-50
2023/07/30 12:09:18;;;;;;;4.15;1.45;;;22.60;99.90;;;;;;5113637;28;20190;-52
2023/07/30 12:11:52;;;;;;;5.70;1.77;;;22.50;99.90;;;;;;5114172;28;20274;-51
2023/07/30 12:14:18;;;;;;;4.20;1.40;;;22.10;99.90;;;;;;5114303;28;20168;-52
2023/07/30 12:16:44;;;;;;;7.20;1.63;;;21.90;99.90;;;;;;5114067;28;20177;-51
2023/07/30 12:19:10;;;;;;;6.60;1.60;;;21.90;99.90;;;;;;5113939;28;20227;-51
2023/07/30 12:21:36;;;;;;;5.22;1.67;;;22.10;99.90;;;;;;5114365;28;20219;-52
2023/07/30 12:24:03;;;;;;;4.75;1.75;;;21.90;99.90;;;;;;5114011;28;20188;-54
2023/07/30 12:26:29;;;;;;;4.20;1.70;;;22.10;99.90;;;;;;5114075;28;20177;-49
2023/07/30 12:28:55;;;;;;;5.82;1.75;;;22.20;99.90;;;;;;5114008;28;20165;-49
2023/07/30 12:31:20;;;;;;;3.72;1.30;;;22.30;99.90;;;;;;5113884;28;20239;-51
2023/07/30 12:33:46;;;;;;;6.40;1.60;;;22.30;99.90;;;;;;5113906;28;20234;-52
2023/07/30 12:36:12;;;;;;;4.97;1.80;;;22.10;99.90;;;;;;5114192;28;20306;-49
2023/07/30 12:38:37;;;;;;;5.95;1.90;;;22.00;99.90;;;;;;5113882;28;20176;-47